Airports

 

 

Airport Name Latest METAR Visual Conditions
Guam International Airport (GUM) PGUM 230054Z 15007KT 10SM FEW021 30/24 A2991 RMK AO2 SLP119 T03000244 VFR
Daniel K Inouye International Airport (HNL) PHNL 230053Z 22011KT 10SM FEW023 SCT041 BKN250 31/24 A2996 RMK AO2 SLP143 T03060233 $ VFR
Hilo International Airport (ITO) PHTO 230053Z AUTO 09009KT 10SM FEW019 32/23 A2997 RMK AO2 SLP146 T03170233 TSNO VFR
Ellison Onizuka Kona International Airport at Keahole (Kona) (KOA) PHKO 230053Z 24010KT 10SM SCT050 SCT080 31/23 A2994 RMK AO2 SLP136 T03060228 VFR
Lihue Airport (LIH) PHLI 230053Z 05008KT 10SM FEW014 30/24 A2999 RMK AO2 SLP151 T03000239 $ VFR
Kahului Airport (Maui) (OGG) PHOG 230054Z 05017KT 10SM FEW030 SCT045 34/23 A2994 RMK AO2 SLP143 T03440233 VFR